METAR Formatted Surface Weather Observation
Issued by NWS Charleston, WV

Home | Current Version | Previous Version | Text Only | Print | Product List | Glossary On
Versions: 1
000
SAUS41 KRLX 271521
MTRHTS
SPECI KHTS 271520Z 36004KT 9SM OVC015 M07/M11 A3003 RMK AO2
T10671106



USA.gov is the U.S. government's official web portal to all federal, state and local government web resources and services.